<?xml version="1.0" encoding="UTF-8" standalone="no" ?>
<gpx xmlns="http://www.topografix.com/GPX/1/1" xmlns:xsi="http://www.w3.org/2001/XMLSchema-instance" xsi:schemaLocation="http://www.topografix.com/GPX/1/1 http://www.topografix.com/GPX/1/1/gpx.xsd" version="1.1" creator="VisuGPX - https://www.visugpx.com">
  <metadata>
    <name>rando fronsac 13.41 km</name>
    <desc><![CDATA[agréable rando route chemin et vigne]]></desc>
  </metadata>
  <trk>
    <name><![CDATA[rando fronsac 13 km]]></name>
    <trkseg>
      <trkpt lat="44.92385" lon="-0.27132">
        <ele>30</ele>
        <time>2012-04-29T21:57:21Z</time>
      </trkpt>
      <trkpt lat="44.9231" lon="-0.26784">
        <ele>54</ele>
        <time>2012-04-29T21:57:22Z</time>
      </trkpt>
      <trkpt lat="44.92431" lon="-0.26765">
        <ele>48</ele>
        <time>2012-04-29T21:57:24Z</time>
      </trkpt>
      <trkpt lat="44.92568" lon="-0.26775">
        <ele>29</ele>
        <time>2012-04-29T21:57:25Z</time>
      </trkpt>
      <trkpt lat="44.92587" lon="-0.26899">
        <ele>36</ele>
        <time>2012-04-29T21:57:27Z</time>
      </trkpt>
      <trkpt lat="44.92687" lon="-0.26882">
        <ele>33</ele>
        <time>2012-04-29T21:57:43Z</time>
      </trkpt>
      <trkpt lat="44.92744" lon="-0.26909">
        <ele>36</ele>
        <time>2012-04-29T21:57:45Z</time>
      </trkpt>
      <trkpt lat="44.92813" lon="-0.26922">
        <ele>40</ele>
        <time>2012-04-29T21:57:46Z</time>
      </trkpt>
      <trkpt lat="44.92845" lon="-0.26939">
        <ele>41</ele>
        <time>2012-04-29T21:57:48Z</time>
      </trkpt>
      <trkpt lat="44.92886" lon="-0.26958">
        <ele>42</ele>
        <time>2012-04-29T21:57:50Z</time>
      </trkpt>
      <trkpt lat="44.93007" lon="-0.26967">
        <ele>42</ele>
        <time>2012-04-29T21:57:51Z</time>
      </trkpt>
      <trkpt lat="44.92999" lon="-0.27018">
        <ele>44</ele>
        <time>2012-04-29T21:57:53Z</time>
      </trkpt>
      <trkpt lat="44.93101" lon="-0.27024">
        <ele>40</ele>
        <time>2012-04-29T21:57:55Z</time>
      </trkpt>
      <trkpt lat="44.93147" lon="-0.27048">
        <ele>37</ele>
        <time>2012-04-29T21:57:58Z</time>
      </trkpt>
      <trkpt lat="44.93171" lon="-0.27078">
        <ele>37</ele>
        <time>2012-04-29T21:58:00Z</time>
      </trkpt>
      <trkpt lat="44.9319" lon="-0.2712">
        <ele>38</ele>
        <time>2012-04-29T21:58:02Z</time>
      </trkpt>
      <trkpt lat="44.93227" lon="-0.2715">
        <ele>39</ele>
        <time>2012-04-29T21:58:05Z</time>
      </trkpt>
      <trkpt lat="44.93251" lon="-0.27143">
        <ele>37</ele>
        <time>2012-04-29T21:58:09Z</time>
      </trkpt>
      <trkpt lat="44.93231" lon="-0.27226">
        <ele>41</ele>
        <time>2012-04-29T21:58:12Z</time>
      </trkpt>
      <trkpt lat="44.93222" lon="-0.27333">
        <ele>43</ele>
        <time>2012-04-29T21:58:16Z</time>
      </trkpt>
      <trkpt lat="44.9315" lon="-0.2752">
        <ele>45</ele>
        <time>2012-04-29T21:58:28Z</time>
      </trkpt>
      <trkpt lat="44.93181" lon="-0.27539">
        <ele>43</ele>
        <time>2012-04-29T21:58:38Z</time>
      </trkpt>
      <trkpt lat="44.9316" lon="-0.277">
        <ele>44</ele>
        <time>2012-04-29T21:58:43Z</time>
      </trkpt>
      <trkpt lat="44.93232" lon="-0.27711">
        <ele>42</ele>
        <time>2012-04-29T21:58:46Z</time>
      </trkpt>
      <trkpt lat="44.93315" lon="-0.27681">
        <ele>38</ele>
        <time>2012-04-29T21:58:50Z</time>
      </trkpt>
      <trkpt lat="44.93341" lon="-0.27696">
        <ele>38</ele>
        <time>2012-04-29T21:58:53Z</time>
      </trkpt>
      <trkpt lat="44.93393" lon="-0.27674">
        <ele>36</ele>
        <time>2012-04-29T21:58:57Z</time>
      </trkpt>
      <trkpt lat="44.93409" lon="-0.27557">
        <ele>34</ele>
        <time>2012-04-29T21:59:01Z</time>
      </trkpt>
      <trkpt lat="44.93493" lon="-0.27554">
        <ele>32</ele>
        <time>2012-04-29T21:59:08Z</time>
      </trkpt>
      <trkpt lat="44.93519" lon="-0.27496">
        <ele>30</ele>
        <time>2012-04-29T21:59:11Z</time>
      </trkpt>
      <trkpt lat="44.93579" lon="-0.27427">
        <ele>28</ele>
        <time>2012-04-29T21:59:14Z</time>
      </trkpt>
      <trkpt lat="44.9362" lon="-0.27411">
        <ele>27</ele>
        <time>2012-04-29T21:59:18Z</time>
      </trkpt>
      <trkpt lat="44.93741" lon="-0.27415">
        <ele>27</ele>
        <time>2012-04-29T21:59:23Z</time>
      </trkpt>
      <trkpt lat="44.93789" lon="-0.27434">
        <ele>29</ele>
        <time>2012-04-29T21:59:26Z</time>
      </trkpt>
      <trkpt lat="44.93841" lon="-0.27453">
        <ele>31</ele>
        <time>2012-04-29T21:59:29Z</time>
      </trkpt>
      <trkpt lat="44.93827" lon="-0.27594">
        <ele>35</ele>
        <time>2012-04-29T21:59:34Z</time>
      </trkpt>
      <trkpt lat="44.9389" lon="-0.27583">
        <ele>36</ele>
        <time>2012-04-29T21:59:37Z</time>
      </trkpt>
      <trkpt lat="44.93901" lon="-0.27657">
        <ele>38</ele>
        <time>2012-04-29T21:59:40Z</time>
      </trkpt>
      <trkpt lat="44.94018" lon="-0.27621">
        <ele>36</ele>
        <time>2012-04-29T21:59:51Z</time>
      </trkpt>
      <trkpt lat="44.94012" lon="-0.27596">
        <ele>36</ele>
        <time>2012-04-29T21:59:55Z</time>
      </trkpt>
      <trkpt lat="44.9411" lon="-0.27561">
        <ele>30</ele>
        <time>2012-04-29T21:59:59Z</time>
      </trkpt>
      <trkpt lat="44.94115" lon="-0.27516">
        <ele>29</ele>
        <time>2012-04-29T22:00:03Z</time>
      </trkpt>
      <trkpt lat="44.94181" lon="-0.2752">
        <ele>24</ele>
        <time>2012-04-29T22:00:06Z</time>
      </trkpt>
      <trkpt lat="44.94263" lon="-0.27524">
        <ele>20</ele>
        <time>2012-04-29T22:00:10Z</time>
      </trkpt>
      <trkpt lat="44.94263" lon="-0.27607">
        <ele>22</ele>
        <time>2012-04-29T22:00:13Z</time>
      </trkpt>
      <trkpt lat="44.94401" lon="-0.27523">
        <ele>20</ele>
        <time>2012-04-29T22:00:16Z</time>
      </trkpt>
      <trkpt lat="44.94424" lon="-0.27612">
        <ele>23</ele>
        <time>2012-04-29T22:00:20Z</time>
      </trkpt>
      <trkpt lat="44.94432" lon="-0.27609">
        <ele>23</ele>
        <time>2012-04-29T22:00:25Z</time>
      </trkpt>
      <trkpt lat="44.94466" lon="-0.27733">
        <ele>26</ele>
        <time>2012-04-29T22:00:29Z</time>
      </trkpt>
      <trkpt lat="44.94509" lon="-0.27892">
        <ele>32</ele>
        <time>2012-04-29T22:00:32Z</time>
      </trkpt>
      <trkpt lat="44.94519" lon="-0.27926">
        <ele>34</ele>
        <time>2012-04-29T22:00:36Z</time>
      </trkpt>
      <trkpt lat="44.94521" lon="-0.27973">
        <ele>35</ele>
        <time>2012-04-29T22:00:39Z</time>
      </trkpt>
      <trkpt lat="44.94507" lon="-0.28006">
        <ele>36</ele>
        <time>2012-04-29T22:00:42Z</time>
      </trkpt>
      <trkpt lat="44.94479" lon="-0.28023">
        <ele>35</ele>
        <time>2012-04-29T22:00:45Z</time>
      </trkpt>
      <trkpt lat="44.94451" lon="-0.28029">
        <ele>33</ele>
        <time>2012-04-29T22:00:48Z</time>
      </trkpt>
      <trkpt lat="44.94431" lon="-0.28055">
        <ele>33</ele>
        <time>2012-04-29T22:00:50Z</time>
      </trkpt>
      <trkpt lat="44.94422" lon="-0.28089">
        <ele>35</ele>
        <time>2012-04-29T22:00:54Z</time>
      </trkpt>
      <trkpt lat="44.9443" lon="-0.28121">
        <ele>37</ele>
        <time>2012-04-29T22:01:05Z</time>
      </trkpt>
      <trkpt lat="44.94424" lon="-0.28155">
        <ele>39</ele>
        <time>2012-04-29T22:01:08Z</time>
      </trkpt>
      <trkpt lat="44.94418" lon="-0.28182">
        <ele>40</ele>
        <time>2012-04-29T22:01:12Z</time>
      </trkpt>
      <trkpt lat="44.94502" lon="-0.28582">
        <ele>73</ele>
        <time>2012-04-29T22:01:15Z</time>
      </trkpt>
      <trkpt lat="44.94574" lon="-0.28583">
        <ele>75</ele>
        <time>2012-04-29T22:01:19Z</time>
      </trkpt>
      <trkpt lat="44.94625" lon="-0.28607">
        <ele>76</ele>
        <time>2012-04-29T22:01:23Z</time>
      </trkpt>
      <trkpt lat="44.94678" lon="-0.2866">
        <ele>77</ele>
        <time>2012-04-29T22:01:28Z</time>
      </trkpt>
      <trkpt lat="44.94723" lon="-0.28782">
        <ele>75</ele>
        <time>2012-04-29T22:01:33Z</time>
      </trkpt>
      <trkpt lat="44.94771" lon="-0.28968">
        <ele>72</ele>
        <time>2012-04-29T22:01:36Z</time>
      </trkpt>
      <trkpt lat="44.94873" lon="-0.28922">
        <ele>80</ele>
        <time>2012-04-29T22:01:40Z</time>
      </trkpt>
      <trkpt lat="44.94996" lon="-0.28874">
        <ele>83</ele>
        <time>2012-04-29T22:01:45Z</time>
      </trkpt>
      <trkpt lat="44.95002" lon="-0.28911">
        <ele>83</ele>
        <time>2012-04-29T22:01:48Z</time>
      </trkpt>
      <trkpt lat="44.95005" lon="-0.28978">
        <ele>82</ele>
        <time>2012-04-29T22:01:52Z</time>
      </trkpt>
      <trkpt lat="44.95013" lon="-0.29021">
        <ele>81</ele>
        <time>2012-04-29T22:01:55Z</time>
      </trkpt>
      <trkpt lat="44.95039" lon="-0.29114">
        <ele>77</ele>
        <time>2012-04-29T22:02:09Z</time>
      </trkpt>
      <trkpt lat="44.95043" lon="-0.29153">
        <ele>76</ele>
        <time>2012-04-29T22:02:13Z</time>
      </trkpt>
      <trkpt lat="44.95043" lon="-0.29195">
        <ele>75</ele>
        <time>2012-04-29T22:02:16Z</time>
      </trkpt>
      <trkpt lat="44.95043" lon="-0.29241">
        <ele>75</ele>
        <time>2012-04-29T22:02:19Z</time>
      </trkpt>
      <trkpt lat="44.95049" lon="-0.29287">
        <ele>74</ele>
        <time>2012-04-29T22:02:22Z</time>
      </trkpt>
      <trkpt lat="44.95059" lon="-0.29322">
        <ele>74</ele>
        <time>2012-04-29T22:02:27Z</time>
      </trkpt>
      <trkpt lat="44.95076" lon="-0.29363">
        <ele>74</ele>
        <time>2012-04-29T22:02:30Z</time>
      </trkpt>
      <trkpt lat="44.95092" lon="-0.29405">
        <ele>74</ele>
        <time>2012-04-29T22:02:33Z</time>
      </trkpt>
      <trkpt lat="44.95102" lon="-0.29451">
        <ele>75</ele>
        <time>2012-04-29T22:02:40Z</time>
      </trkpt>
      <trkpt lat="44.95108" lon="-0.29492">
        <ele>76</ele>
        <time>2012-04-29T22:02:43Z</time>
      </trkpt>
      <trkpt lat="44.95102" lon="-0.29545">
        <ele>77</ele>
        <time>2012-04-29T22:02:51Z</time>
      </trkpt>
      <trkpt lat="44.95075" lon="-0.29721">
        <ele>80</ele>
        <time>2012-04-29T22:02:54Z</time>
      </trkpt>
      <trkpt lat="44.9508" lon="-0.29755">
        <ele>80</ele>
        <time>2012-04-29T22:02:57Z</time>
      </trkpt>
      <trkpt lat="44.95103" lon="-0.299">
        <ele>77</ele>
        <time>2012-04-29T22:03:01Z</time>
      </trkpt>
      <trkpt lat="44.95108" lon="-0.29966">
        <ele>76</ele>
        <time>2012-04-29T22:03:04Z</time>
      </trkpt>
      <trkpt lat="44.95105" lon="-0.30071">
        <ele>75</ele>
        <time>2012-04-29T22:03:07Z</time>
      </trkpt>
      <trkpt lat="44.95092" lon="-0.30194">
        <ele>75</ele>
        <time>2012-04-29T22:03:10Z</time>
      </trkpt>
      <trkpt lat="44.95084" lon="-0.3028">
        <ele>76</ele>
        <time>2012-04-29T22:03:13Z</time>
      </trkpt>
      <trkpt lat="44.95098" lon="-0.30392">
        <ele>76</ele>
        <time>2012-04-29T22:03:16Z</time>
      </trkpt>
      <trkpt lat="44.95102" lon="-0.30467">
        <ele>78</ele>
        <time>2012-04-29T22:03:20Z</time>
      </trkpt>
      <trkpt lat="44.95144" lon="-0.30554">
        <ele>81</ele>
        <time>2012-04-29T22:03:23Z</time>
      </trkpt>
      <trkpt lat="44.95182" lon="-0.3062">
        <ele>82</ele>
        <time>2012-04-29T22:03:26Z</time>
      </trkpt>
      <trkpt lat="44.95219" lon="-0.30711">
        <ele>82</ele>
        <time>2012-04-29T22:03:33Z</time>
      </trkpt>
      <trkpt lat="44.95137" lon="-0.30691">
        <ele>81</ele>
        <time>2012-04-29T22:03:37Z</time>
      </trkpt>
      <trkpt lat="44.95029" lon="-0.30642">
        <ele>79</ele>
        <time>2012-04-29T22:03:40Z</time>
      </trkpt>
      <trkpt lat="44.9494" lon="-0.30603">
        <ele>78</ele>
        <time>2012-04-29T22:03:44Z</time>
      </trkpt>
      <trkpt lat="44.94866" lon="-0.30583">
        <ele>77</ele>
        <time>2012-04-29T22:03:47Z</time>
      </trkpt>
      <trkpt lat="44.94763" lon="-0.30546">
        <ele>77</ele>
        <time>2012-04-29T22:03:50Z</time>
      </trkpt>
      <trkpt lat="44.94625" lon="-0.3041">
        <ele>78</ele>
        <time>2012-04-29T22:03:54Z</time>
      </trkpt>
      <trkpt lat="44.94581" lon="-0.30403">
        <ele>77</ele>
        <time>2012-04-29T22:03:58Z</time>
      </trkpt>
      <trkpt lat="44.9454" lon="-0.30406">
        <ele>76</ele>
        <time>2012-04-29T22:04:02Z</time>
      </trkpt>
      <trkpt lat="44.94494" lon="-0.30393">
        <ele>76</ele>
        <time>2012-04-29T22:04:05Z</time>
      </trkpt>
      <trkpt lat="44.94534" lon="-0.30356">
        <ele>76</ele>
        <time>2012-04-29T22:04:09Z</time>
      </trkpt>
      <trkpt lat="44.94532" lon="-0.30333">
        <ele>76</ele>
        <time>2012-04-29T22:04:13Z</time>
      </trkpt>
      <trkpt lat="44.94558" lon="-0.3031">
        <ele>77</ele>
        <time>2012-04-29T22:04:16Z</time>
      </trkpt>
      <trkpt lat="44.94631" lon="-0.30264">
        <ele>80</ele>
        <time>2012-04-29T22:04:19Z</time>
      </trkpt>
      <trkpt lat="44.94735" lon="-0.30194">
        <ele>82</ele>
        <time>2012-04-29T22:04:24Z</time>
      </trkpt>
      <trkpt lat="44.94662" lon="-0.29987">
        <ele>84</ele>
        <time>2012-04-29T22:04:26Z</time>
      </trkpt>
      <trkpt lat="44.94733" lon="-0.29953">
        <ele>84</ele>
        <time>2012-04-29T22:04:29Z</time>
      </trkpt>
      <trkpt lat="44.9468" lon="-0.29849">
        <ele>80</ele>
        <time>2012-04-29T22:04:32Z</time>
      </trkpt>
      <trkpt lat="44.9467" lon="-0.29848">
        <ele>80</ele>
        <time>2012-04-29T22:04:38Z</time>
      </trkpt>
      <trkpt lat="44.94606" lon="-0.29721">
        <ele>69</ele>
        <time>2012-04-29T22:04:43Z</time>
      </trkpt>
      <trkpt lat="44.94646" lon="-0.29687">
        <ele>70</ele>
        <time>2012-04-29T22:04:46Z</time>
      </trkpt>
      <trkpt lat="44.94663" lon="-0.29657">
        <ele>70</ele>
        <time>2012-04-29T22:04:50Z</time>
      </trkpt>
      <trkpt lat="44.94639" lon="-0.2962">
        <ele>67</ele>
        <time>2012-04-29T22:04:54Z</time>
      </trkpt>
      <trkpt lat="44.94607" lon="-0.29645">
        <ele>66</ele>
        <time>2012-04-29T22:04:58Z</time>
      </trkpt>
      <trkpt lat="44.94585" lon="-0.29633">
        <ele>64</ele>
        <time>2012-04-29T22:05:05Z</time>
      </trkpt>
      <trkpt lat="44.9453" lon="-0.29537">
        <ele>58</ele>
        <time>2012-04-29T22:05:09Z</time>
      </trkpt>
      <trkpt lat="44.94463" lon="-0.29399">
        <ele>49</ele>
        <time>2012-04-29T22:05:13Z</time>
      </trkpt>
      <trkpt lat="44.94425" lon="-0.2933">
        <ele>46</ele>
        <time>2012-04-29T22:05:16Z</time>
      </trkpt>
      <trkpt lat="44.94342" lon="-0.29239">
        <ele>43</ele>
        <time>2012-04-29T22:05:24Z</time>
      </trkpt>
      <trkpt lat="44.94251" lon="-0.29148">
        <ele>45</ele>
        <time>2012-04-29T22:05:27Z</time>
      </trkpt>
      <trkpt lat="44.94126" lon="-0.29019">
        <ele>53</ele>
        <time>2012-04-29T22:05:31Z</time>
      </trkpt>
      <trkpt lat="44.94066" lon="-0.28973">
        <ele>54</ele>
        <time>2012-04-29T22:05:34Z</time>
      </trkpt>
      <trkpt lat="44.93999" lon="-0.28892">
        <ele>56</ele>
        <time>2012-04-29T22:05:37Z</time>
      </trkpt>
      <trkpt lat="44.93971" lon="-0.28842">
        <ele>57</ele>
        <time>2012-04-29T22:05:40Z</time>
      </trkpt>
      <trkpt lat="44.93944" lon="-0.28814">
        <ele>56</ele>
        <time>2012-04-29T22:05:43Z</time>
      </trkpt>
      <trkpt lat="44.93881" lon="-0.28801">
        <ele>54</ele>
        <time>2012-04-29T22:05:47Z</time>
      </trkpt>
      <trkpt lat="44.93853" lon="-0.2873">
        <ele>51</ele>
        <time>2012-04-29T22:05:49Z</time>
      </trkpt>
      <trkpt lat="44.93827" lon="-0.28762">
        <ele>50</ele>
        <time>2012-04-29T22:05:53Z</time>
      </trkpt>
      <trkpt lat="44.93773" lon="-0.28643">
        <ele>46</ele>
        <time>2012-04-29T22:05:57Z</time>
      </trkpt>
      <trkpt lat="44.93745" lon="-0.28621">
        <ele>44</ele>
        <time>2012-04-29T22:06:00Z</time>
      </trkpt>
      <trkpt lat="44.93727" lon="-0.28588">
        <ele>43</ele>
        <time>2012-04-29T22:06:04Z</time>
      </trkpt>
      <trkpt lat="44.93646" lon="-0.28485">
        <ele>44</ele>
        <time>2012-04-29T22:06:07Z</time>
      </trkpt>
      <trkpt lat="44.93625" lon="-0.2847">
        <ele>46</ele>
        <time>2012-04-29T22:06:10Z</time>
      </trkpt>
      <trkpt lat="44.93594" lon="-0.28469">
        <ele>46</ele>
        <time>2012-04-29T22:06:13Z</time>
      </trkpt>
      <trkpt lat="44.93524" lon="-0.28488">
        <ele>47</ele>
        <time>2012-04-29T22:06:19Z</time>
      </trkpt>
      <trkpt lat="44.93456" lon="-0.28534">
        <ele>48</ele>
        <time>2012-04-29T22:06:22Z</time>
      </trkpt>
      <trkpt lat="44.93331" lon="-0.28638">
        <ele>49</ele>
        <time>2012-04-29T22:06:25Z</time>
      </trkpt>
      <trkpt lat="44.93288" lon="-0.28664">
        <ele>47</ele>
        <time>2012-04-29T22:06:28Z</time>
      </trkpt>
      <trkpt lat="44.93233" lon="-0.28659">
        <ele>47</ele>
        <time>2012-04-29T22:06:31Z</time>
      </trkpt>
      <trkpt lat="44.93191" lon="-0.28694">
        <ele>46</ele>
        <time>2012-04-29T22:06:34Z</time>
      </trkpt>
      <trkpt lat="44.93164" lon="-0.28647">
        <ele>47</ele>
        <time>2012-04-29T22:06:38Z</time>
      </trkpt>
      <trkpt lat="44.93108" lon="-0.28592">
        <ele>46</ele>
        <time>2012-04-29T22:06:41Z</time>
      </trkpt>
      <trkpt lat="44.92954" lon="-0.2854">
        <ele>37</ele>
        <time>2012-04-29T22:06:45Z</time>
      </trkpt>
      <trkpt lat="44.92909" lon="-0.28507">
        <ele>33</ele>
        <time>2012-04-29T22:06:48Z</time>
      </trkpt>
      <trkpt lat="44.92917" lon="-0.28646">
        <ele>39</ele>
        <time>2012-04-29T22:06:51Z</time>
      </trkpt>
      <trkpt lat="44.92751" lon="-0.28647">
        <ele>27</ele>
        <time>2012-04-29T22:06:54Z</time>
      </trkpt>
      <trkpt lat="44.92746" lon="-0.28536">
        <ele>23</ele>
        <time>2012-04-29T22:06:58Z</time>
      </trkpt>
      <trkpt lat="44.92702" lon="-0.28417">
        <ele>19</ele>
        <time>2012-04-29T22:07:03Z</time>
      </trkpt>
      <trkpt lat="44.92734" lon="-0.28414">
        <ele>20</ele>
        <time>2012-04-29T22:07:07Z</time>
      </trkpt>
      <trkpt lat="44.92719" lon="-0.28315">
        <ele>19</ele>
        <time>2012-04-29T22:07:11Z</time>
      </trkpt>
      <trkpt lat="44.92766" lon="-0.28305">
        <ele>21</ele>
        <time>2012-04-29T22:07:14Z</time>
      </trkpt>
      <trkpt lat="44.92749" lon="-0.28129">
        <ele>22</ele>
        <time>2012-04-29T22:07:23Z</time>
      </trkpt>
      <trkpt lat="44.92724" lon="-0.28034">
        <ele>23</ele>
        <time>2012-04-29T22:07:26Z</time>
      </trkpt>
      <trkpt lat="44.92697" lon="-0.27941">
        <ele>23</ele>
        <time>2012-04-29T22:07:31Z</time>
      </trkpt>
      <trkpt lat="44.9268" lon="-0.27924">
        <ele>22</ele>
        <time>2012-04-29T22:07:34Z</time>
      </trkpt>
      <trkpt lat="44.92742" lon="-0.27873">
        <ele>28</ele>
        <time>2012-04-29T22:07:38Z</time>
      </trkpt>
      <trkpt lat="44.9271" lon="-0.27806">
        <ele>30</ele>
        <time>2012-04-29T22:07:41Z</time>
      </trkpt>
      <trkpt lat="44.92736" lon="-0.27785">
        <ele>33</ele>
        <time>2012-04-29T22:07:44Z</time>
      </trkpt>
      <trkpt lat="44.92721" lon="-0.27734">
        <ele>35</ele>
        <time>2012-04-29T22:07:47Z</time>
      </trkpt>
      <trkpt lat="44.92653" lon="-0.2775">
        <ele>30</ele>
        <time>2012-04-29T22:07:51Z</time>
      </trkpt>
      <trkpt lat="44.92638" lon="-0.2761">
        <ele>35</ele>
        <time>2012-04-29T22:07:54Z</time>
      </trkpt>
      <trkpt lat="44.92657" lon="-0.27486">
        <ele>39</ele>
        <time>2012-04-29T22:07:57Z</time>
      </trkpt>
      <trkpt lat="44.92545" lon="-0.27497">
        <ele>32</ele>
        <time>2012-04-29T22:08:01Z</time>
      </trkpt>
      <trkpt lat="44.92528" lon="-0.2738">
        <ele>35</ele>
        <time>2012-04-29T22:08:04Z</time>
      </trkpt>
      <trkpt lat="44.92516" lon="-0.27294">
        <ele>36</ele>
        <time>2012-04-29T22:08:09Z</time>
      </trkpt>
      <trkpt lat="44.92542" lon="-0.27282">
        <ele>38</ele>
        <time>2012-04-29T22:08:12Z</time>
      </trkpt>
      <trkpt lat="44.92516" lon="-0.2707">
        <ele>39</ele>
        <time>2012-04-29T22:08:16Z</time>
      </trkpt>
      <trkpt lat="44.92439" lon="-0.27094">
        <ele>34</ele>
        <time>2012-04-29T22:08:22Z</time>
      </trkpt>
      <trkpt lat="44.92442" lon="-0.27106">
        <ele>34</ele>
        <time>2012-04-29T22:08:25Z</time>
      </trkpt>
      <trkpt lat="44.92392" lon="-0.27127">
        <ele>31</ele>
        <time>2012-04-29T22:08:29Z</time>
      </trkpt>
    </trkseg>
  </trk>
</gpx>